HUAL Seoul — LADO6 — position and weather

sailwx.info

Track history (hours):
 
Tides and Currents Weather Stations Pressure Air Temp Water Temp Dewpoint Dewpoint Depression Visibility Wind Speed Wind Dir Waves Ship Positions

HUAL Seoul

Last reported at 2014-Sep-29 15:15 UTC. Time now 2014-Sep-30 22:00 UTC.
Position N 35°05' E 139°44'.

Type: Cargo ship. MMSI: 257496000.

Date/timePositionNaut miles runAvg speedWind from/ knotsBaromVisibWave heightAir tempDewpointWater temp
2014-Sep-29 15:15N 35°05' E 139°44'913.1
2014-Sep-29 14:33N 35°14' E 139°46'1312.9
2014-Sep-29 13:33N 35°27' E 139°45'3 2.7
2014-Sep-29 12:33N 35°30' E 139°46'0 0.0
2014-Sep-29 11:33N 35°30' E 139°46'0 0.0
2014-Sep-29 10:33N 35°30' E 139°46'0 0.0
2014-Sep-29 09:33N 35°30' E 139°46'0 0.0
2014-Sep-29 08:33N 35°30' E 139°46'0 0.0
2014-Sep-28 13:33N 35°30' E 139°46'0 0.0
2014-Sep-28 12:33N 35°30' E 139°46'0 0.0
2014-Sep-28 11:33N 35°30' E 139°46'0 0.0
2014-Sep-28 10:33N 35°30' E 139°46'0 0.0
2014-Sep-28 09:33N 35°30' E 139°46'0 0.0
2014-Sep-28 08:33N 35°30' E 139°46'0 0.0
2014-Sep-28 07:33N 35°30' E 139°46'3 3.1
2014-Sep-28 06:34N 35°27' E 139°47'1212.0
2014-Sep-28 05:33N 35°15' E 139°47'10 9.6
2014-Sep-28 04:33N 35°05' E 139°45'  
2014-Sep-25 10:33N 34°04' E 134°58'1414.1
2014-Sep-25 09:33N 34°18' E 134°58'1616.3
2014-Sep-25 08:33N 34°31' E 135°11'1111.3
2014-Sep-25 07:33N 34°41' E 135°17'0 0.0
2014-Sep-25 06:26N 34°41' E 135°17'0 0.0
2014-Sep-25 05:26N 34°41' E 135°17'0 0.0
2014-Sep-25 04:32N 34°41' E 135°17'0 0.0
2014-Sep-25 03:32N 34°41' E 135°17'0 0.0
2014-Sep-25 02:32N 34°41' E 135°17'0 0.0
2014-Sep-25 01:32N 34°41' E 135°17'0 0.0
2014-Sep-25 00:32N 34°41' E 135°17'0 0.0
2014-Sep-24 23:32N 34°41' E 135°17'1 1.0
2014-Sep-24 22:33N 34°41' E 135°18'1211.7
2014-Sep-24 21:33N 34°30' E 135°12'1413.8
2014-Sep-24 20:33N 34°20' E 135°01'8 7.6
2014-Sep-24 19:33N 34°12' E 134°59'10 9.9
2014-Sep-24 18:33N 34°02' E 134°59'1010.3
2014-Sep-24 17:33N 33°52' E 134°58'  
Track history (hours):
 
Tides and Currents Weather Stations Pressure Air Temp Water Temp Dewpoint Dewpoint Depression Visibility Wind Speed Wind Dir Waves Ship Positions

HUAL Seoul

Last reported at 2014-Sep-29 15:15 UTC. Time now 2014-Sep-30 22:00 UTC.
Position N 35°05' E 139°44'.

Type: Cargo ship. MMSI: 257496000.

Date/timePositionNaut miles runAvg speedWind from/ knotsBaromVisibWave heightAir tempDewpointWater temp
2014-Sep-29 15:15N 35°05' E 139°44'913.1
2014-Sep-29 14:33N 35°14' E 139°46'1312.9
2014-Sep-29 13:33N 35°27' E 139°45'3 2.7
2014-Sep-29 12:33N 35°30' E 139°46'0 0.0
2014-Sep-29 11:33N 35°30' E 139°46'0 0.0
2014-Sep-29 10:33N 35°30' E 139°46'0 0.0
2014-Sep-29 09:33N 35°30' E 139°46'0 0.0
2014-Sep-29 08:33N 35°30' E 139°46'0 0.0
2014-Sep-28 13:33N 35°30' E 139°46'0 0.0
2014-Sep-28 12:33N 35°30' E 139°46'0 0.0
2014-Sep-28 11:33N 35°30' E 139°46'0 0.0
2014-Sep-28 10:33N 35°30' E 139°46'0 0.0
2014-Sep-28 09:33N 35°30' E 139°46'0 0.0
2014-Sep-28 08:33N 35°30' E 139°46'0 0.0
2014-Sep-28 07:33N 35°30' E 139°46'3 3.1
2014-Sep-28 06:34N 35°27' E 139°47'1212.0
2014-Sep-28 05:33N 35°15' E 139°47'10 9.6
2014-Sep-28 04:33N 35°05' E 139°45'  
2014-Sep-25 10:33N 34°04' E 134°58'1414.1
2014-Sep-25 09:33N 34°18' E 134°58'1616.3
2014-Sep-25 08:33N 34°31' E 135°11'1111.3
2014-Sep-25 07:33N 34°41' E 135°17'0 0.0
2014-Sep-25 06:26N 34°41' E 135°17'0 0.0
2014-Sep-25 05:26N 34°41' E 135°17'0 0.0
2014-Sep-25 04:32N 34°41' E 135°17'0 0.0
2014-Sep-25 03:32N 34°41' E 135°17'0 0.0
2014-Sep-25 02:32N 34°41' E 135°17'0 0.0
2014-Sep-25 01:32N 34°41' E 135°17'0 0.0
2014-Sep-25 00:32N 34°41' E 135°17'0 0.0
2014-Sep-24 23:32N 34°41' E 135°17'1 1.0
2014-Sep-24 22:33N 34°41' E 135°18'1211.7
2014-Sep-24 21:33N 34°30' E 135°12'1413.8
2014-Sep-24 20:33N 34°20' E 135°01'8 7.6
2014-Sep-24 19:33N 34°12' E 134°59'10 9.9
2014-Sep-24 18:33N 34°02' E 134°59'1010.3
2014-Sep-24 17:33N 33°52' E 134°58'  

Dump ship's entire track history